Time;durP1;ratioP1;P1;durP2;ratioP2;P2;SDS_P1;SDS_P2;PMS_P1;PMS_P2;Temp;Humidity;BMP_temperature;BMP_pressure;BME280_temperature;BME280_humidity;BME280_pressure;Samples;Min_cycle;Max_cycle;Signal;HPM_P1;HPM_P2
2021/03/29 00:02:06;;;;;;;15.50;5.53;;;;;;;;;;5076253;27;39126;-82
2021/03/29 00:04:32;;;;;;;13.63;4.77;;;;;;;;;;5078306;28;37341;-83
2021/03/29 00:07:01;;;;;;;17.07;5.63;;;;;;;;;;5083773;28;41147;-82
2021/03/29 00:09:29;;;;;;;13.10;5.13;;;;;;;;;;5074654;28;48008;-82
2021/03/29 00:11:55;;;;;;;11.17;5.07;;;;;;;;;;5091081;28;39310;-82
2021/03/29 00:14:25;;;;;;;15.80;5.43;;;;;;;;;;5077124;27;36770;-83
2021/03/29 00:16:52;;;;;;;16.37;5.57;;;;;;;;;;5075794;28;38830;-82
2021/03/29 00:19:19;;;;;;;15.87;5.20;;;;;;;;;;5069090;28;40159;-82
2021/03/29 00:21:45;;;;;;;14.40;5.83;;;;;;;;;;5073050;28;40035;-82
2021/03/29 00:24:12;;;;;;;12.30;5.37;;;;;;;;;;5077765;27;35463;-82
2021/03/29 00:26:38;;;;;;;18.83;6.00;;;;;;;;;;5078698;28;37665;-83
2021/03/29 00:29:05;;;;;;;14.70;5.27;;;;;;;;;;5077624;28;39919;-82
2021/03/29 00:31:32;;;;;;;12.70;5.70;;;;;;;;;;5074527;28;39457;-81
2021/03/29 00:33:59;;;;;;;15.80;7.13;;;;;;;;;;5061191;28;36967;-81
2021/03/29 00:36:26;;;;;;;12.73;5.10;;;;;;;;;;5064609;28;39540;-82
2021/03/29 00:38:54;;;;;;;15.63;5.43;;;;;;;;;;5064744;27;39237;-81
2021/03/29 00:41:20;;;;;;;15.73;6.23;;;;;;;;;;5061624;28;38553;-81
2021/03/29 00:43:48;;;;;;;18.10;6.37;;;;;;;;;;5063269;28;36731;-82
2021/03/29 00:46:15;;;;;;;22.07;6.70;;;;;;;;;;5062884;28;39284;-81
2021/03/29 00:48:42;;;;;;;15.73;6.37;;;;;;;;;;5057258;28;39196;-80
2021/03/29 00:51:09;;;;;;;10.53;5.87;;;;;;;;;;5073908;28;38953;-81
2021/03/29 00:53:37;;;;;;;16.50;6.23;;;;;;;;;;5057150;28;36539;-81
2021/03/29 00:56:03;;;;;;;17.00;6.33;;;;;;;;;;5056147;28;37710;-80
2021/03/29 00:58:30;;;;;;;16.67;6.67;;;;;;;;;;5055838;28;39361;-81
2021/03/29 01:00:58;;;;;;;20.57;6.77;;;;;;;;;;5058895;28;37302;-81
2021/03/29 01:03:27;;;;;;;15.40;6.17;;;;;;;;;;5056484;28;35906;-80
2021/03/29 01:06:05;;;;;;;18.87;6.23;;;;;;;;;;5058471;28;38323;-81
2021/03/29 01:08:33;;;;;;;20.67;5.87;;;;;;;;;;5064464;28;47407;-82
2021/03/29 01:11:01;;;;;;;15.47;6.83;;;;;;;;;;5062863;28;38175;-81
2021/03/29 01:13:28;;;;;;;22.77;8.10;;;;;;;;;;5058002;28;37516;-81
2021/03/29 01:15:56;;;;;;;19.97;7.37;;;;;;;;;;5061201;28;38736;-81
2021/03/29 01:18:23;;;;;;;17.67;7.70;;;;;;;;;;5058996;28;36919;-81
2021/03/29 01:21:01;;;;;;;20.87;8.40;;;;;;;;;;5062052;28;38735;-81
2021/03/29 01:23:30;;;;;;;20.50;8.73;;;;;;;;;;5062150;28;45869;-82
2021/03/29 01:26:06;;;;;;;20.53;8.33;;;;;;;;;;5064153;28;39707;-81
2021/03/29 01:28:33;;;;;;;19.23;8.47;;;;;;;;;;5058914;28;48764;-81
2021/03/29 01:31:00;;;;;;;18.47;8.67;;;;;;;;;;5077157;28;38583;-81
2021/03/29 01:33:27;;;;;;;18.30;7.77;;;;;;;;;;5059997;28;38590;-81
2021/03/29 01:35:57;;;;;;;14.97;8.70;;;;;;;;;;5060835;28;40288;-81
2021/03/29 01:38:24;;;;;;;16.63;8.93;;;;;;;;;;5058677;28;38963;-81
2021/03/29 01:40:51;;;;;;;19.63;9.03;;;;;;;;;;5060433;28;38446;-81
2021/03/29 01:43:17;;;;;;;21.83;9.00;;;;;;;;;;5056868;27;35514;-81
2021/03/29 01:45:44;;;;;;;17.87;9.03;;;;;;;;;;5067839;28;36949;-81
2021/03/29 01:48:11;;;;;;;20.27;10.03;;;;;;;;;;5053291;28;39707;-81
2021/03/29 01:50:42;;;;;;;19.90;9.53;;;;;;;;;;5059618;28;37995;-81
2021/03/29 01:53:09;;;;;;;23.87;9.77;;;;;;;;;;5060240;28;36779;-81
2021/03/29 01:55:36;;;;;;;16.50;8.60;;;;;;;;;;5060137;28;39501;-81
2021/03/29 01:58:03;;;;;;;20.80;10.00;;;;;;;;;;5076566;28;39785;-81
2021/03/29 02:00:33;;;;;;;18.43;9.00;;;;;;;;;;5059860;28;37660;-81
2021/03/29 02:03:01;;;;;;;19.23;8.60;;;;;;;;;;5066008;27;37179;-81
2021/03/29 02:05:27;;;;;;;16.77;7.37;;;;;;;;;;5084596;28;39965;-80
2021/03/29 02:07:54;;;;;;;15.50;7.40;;;;;;;;;;5068401;27;40245;-82
2021/03/29 02:10:24;;;;;;;16.03;6.70;;;;;;;;;;5067974;28;39399;-82
2021/03/29 02:12:52;;;;;;;19.40;7.00;;;;;;;;;;5062432;27;36515;-82
2021/03/29 02:15:20;;;;;;;18.77;6.30;;;;;;;;;;5066157;28;39657;-81
2021/03/29 02:17:47;;;;;;;19.30;7.23;;;;;;;;;;5062453;28;40801;-81
2021/03/29 02:20:17;;;;;;;24.33;6.60;;;;;;;;;;5079772;28;39181;-82
2021/03/29 02:22:44;;;;;;;17.07;6.13;;;;;;;;;;5083100;27;36089;-82
2021/03/29 02:25:12;;;;;;;13.27;5.10;;;;;;;;;;5060941;28;39379;-81
2021/03/29 02:27:38;;;;;;;11.27;5.67;;;;;;;;;;5061175;28;39740;-79
2021/03/29 02:30:12;;;;;;;14.63;6.33;;;;;;;;;;5057686;28;37895;-79
2021/03/29 02:32:45;;;;;;;13.50;5.87;;;;;;;;;;5078653;27;35655;-79
2021/03/29 02:35:13;;;;;;;15.33;5.70;;;;;;;;;;5061182;28;38278;-79
2021/03/29 02:37:40;;;;;;;12.70;5.43;;;;;;;;;;5058486;27;39053;-79
2021/03/29 02:40:07;;;;;;;16.60;5.87;;;;;;;;;;5059621;28;38259;-79
2021/03/29 02:42:34;;;;;;;19.37;6.07;;;;;;;;;;5060919;28;36919;-81
2021/03/29 02:45:01;;;;;;;16.87;5.57;;;;;;;;;;5060558;28;39799;-81
2021/03/29 02:47:27;;;;;;;15.10;5.97;;;;;;;;;;5056431;28;39733;-82
2021/03/29 02:49:55;;;;;;;14.13;5.07;;;;;;;;;;5065565;28;39145;-81
2021/03/29 02:52:22;;;;;;;15.17;6.33;;;;;;;;;;5063978;28;36519;-81
2021/03/29 02:54:48;;;;;;;14.53;5.93;;;;;;;;;;5055098;28;38965;-82
2021/03/29 02:57:15;;;;;;;12.63;5.63;;;;;;;;;;5060822;28;40335;-81
2021/03/29 02:59:42;;;;;;;14.60;6.20;;;;;;;;;;5056086;28;38106;-81
2021/03/29 03:02:08;;;;;;;15.10;6.67;;;;;;;;;;5058100;28;36572;-81
2021/03/29 03:04:35;;;;;;;14.20;5.50;;;;;;;;;;5063012;28;37935;-81
2021/03/29 03:07:02;;;;;;;23.77;6.47;;;;;;;;;;5038960;28;37819;-80
2021/03/29 03:09:28;;;;;;;9.17;5.33;;;;;;;;;;5055161;28;39141;-81
2021/03/29 03:11:55;;;;;;;17.60;6.60;;;;;;;;;;5061071;28;36798;-81
2021/03/29 03:14:22;;;;;;;15.97;5.53;;;;;;;;;;5040476;28;39269;-81
2021/03/29 03:16:48;;;;;;;13.00;5.97;;;;;;;;;;5056029;28;37927;-80
2021/03/29 03:19:14;;;;;;;19.77;6.77;;;;;;;;;;5052542;28;39214;-81
2021/03/29 03:21:41;;;;;;;20.13;6.07;;;;;;;;;;5061394;28;35518;-81
2021/03/29 03:24:08;;;;;;;13.30;5.40;;;;;;;;;;5064271;28;39791;-81
2021/03/29 03:26:34;;;;;;;14.33;5.73;;;;;;;;;;5064831;28;39411;-81
2021/03/29 03:29:01;;;;;;;11.50;5.50;;;;;;;;;;5060185;28;38611;-81
2021/03/29 03:31:27;;;;;;;11.47;4.87;;;;;;;;;;5060798;28;37615;-81
2021/03/29 03:33:54;;;;;;;14.90;5.50;;;;;;;;;;5085865;27;37799;-81
2021/03/29 03:36:22;;;;;;;11.57;4.70;;;;;;;;;;5064376;28;39636;-81
2021/03/29 03:38:50;;;;;;;18.47;6.10;;;;;;;;;;5060382;28;39674;-81
2021/03/29 03:41:24;;;;;;;12.57;4.63;;;;;;;;;;5068650;28;36696;-82
2021/03/29 03:43:53;;;;;;;15.30;5.60;;;;;;;;;;5065883;28;41508;-81
2021/03/29 03:46:24;;;;;;;13.20;5.50;;;;;;;;;;5063611;28;39032;-81
2021/03/29 03:48:51;;;;;;;12.27;4.70;;;;;;;;;;5060974;28;41194;-82
2021/03/29 03:51:18;;;;;;;15.03;6.83;;;;;;;;;;5063638;28;35906;-81
2021/03/29 03:53:46;;;;;;;12.30;4.80;;;;;;;;;;5059252;28;39692;-81
2021/03/29 03:56:13;;;;;;;16.23;5.37;;;;;;;;;;5056515;28;38525;-80
2021/03/29 03:58:39;;;;;;;12.80;4.50;;;;;;;;;;5060525;28;39418;-82
2021/03/29 04:01:10;;;;;;;16.00;5.30;;;;;;;;;;5063695;28;35416;-82
2021/03/29 04:03:36;;;;;;;16.10;5.07;;;;;;;;;;5076603;27;40045;-82
2021/03/29 04:06:03;;;;;;;14.57;5.50;;;;;;;;;;5060883;28;40222;-81
2021/03/29 04:08:30;;;;;;;14.80;4.67;;;;;;;;;;5074885;27;39446;-81
2021/03/29 04:10:59;;;;;;;11.03;4.67;;;;;;;;;;5066036;28;35620;-81
2021/03/29 04:13:30;;;;;;;14.10;4.03;;;;;;;;;;5061393;28;38886;-82
2021/03/29 04:15:57;;;;;;;12.90;4.97;;;;;;;;;;5058004;28;38830;-81
2021/03/29 04:18:23;;;;;;;18.67;5.40;;;;;;;;;;5066637;28;39884;-81
2021/03/29 04:20:51;;;;;;;19.17;5.20;;;;;;;;;;5080174;28;38321;-81
2021/03/29 04:23:24;;;;;;;13.10;5.10;;;;;;;;;;5062488;28;39342;-81
2021/03/29 04:25:51;;;;;;;14.53;4.87;;;;;;;;;;5078963;28;38086;-82
2021/03/29 04:28:17;;;;;;;14.27;5.10;;;;;;;;;;5062047;28;38719;-81
2021/03/29 04:30:44;;;;;;;16.53;5.37;;;;;;;;;;5056370;28;37572;-81
2021/03/29 04:33:10;;;;;;;16.30;5.10;;;;;;;;;;5076615;27;37869;-81
2021/03/29 04:35:37;;;;;;;17.03;5.40;;;;;;;;;;5059282;28;38859;-81
2021/03/29 04:38:03;;;;;;;16.03;4.77;;;;;;;;;;5057283;28;38572;-81
2021/03/29 04:40:29;;;;;;;16.47;4.87;;;;;;;;;;5058082;28;38736;-80
2021/03/29 04:42:56;;;;;;;18.63;4.43;;;;;;;;;;5055447;28;39563;-81
2021/03/29 04:45:23;;;;;;;13.87;4.87;;;;;;;;;;5086044;28;41505;-83
2021/03/29 04:47:50;;;;;;;14.33;5.10;;;;;;;;;;5068462;28;37709;-82
2021/03/29 04:50:17;;;;;;;16.40;4.40;;;;;;;;;;5085571;28;37390;-82
2021/03/29 04:52:43;;;;;;;20.50;5.37;;;;;;;;;;5068381;27;37466;-82
2021/03/29 04:55:11;;;;;;;14.33;4.40;;;;;;;;;;5066906;28;39412;-82
2021/03/29 04:57:37;;;;;;;22.90;4.47;;;;;;;;;;5070420;28;38301;-82
2021/03/29 05:00:05;;;;;;;10.67;4.67;;;;;;;;;;5075365;28;37968;-82
2021/03/29 05:02:31;;;;;;;15.97;4.77;;;;;;;;;;5071323;28;39085;-82
2021/03/29 05:04:57;;;;;;;14.50;4.47;;;;;;;;;;5070551;28;39710;-82
2021/03/29 05:07:24;;;;;;;15.30;5.03;;;;;;;;;;5067414;27;39641;-81
2021/03/29 05:09:50;;;;;;;13.63;4.70;;;;;;;;;;5083293;28;37629;-80
2021/03/29 05:12:19;;;;;;;15.70;4.37;;;;;;;;;;5072588;27;39915;-81
2021/03/29 05:14:45;;;;;;;11.83;4.37;;;;;;;;;;5070065;28;39624;-81
2021/03/29 05:17:13;;;;;;;14.47;4.63;;;;;;;;;;5067807;27;38864;-82
2021/03/29 05:19:39;;;;;;;14.60;4.73;;;;;;;;;;5066509;28;36981;-81
2021/03/29 05:22:09;;;;;;;16.50;4.80;;;;;;;;;;5066150;27;39406;-81
2021/03/29 05:24:36;;;;;;;13.77;4.90;;;;;;;;;;5068038;28;39602;-81
2021/03/29 05:27:03;;;;;;;13.97;4.53;;;;;;;;;;5059555;27;40606;-80
2021/03/29 05:29:40;;;;;;;13.50;4.83;;;;;;;;;;5081599;28;38580;-80
2021/03/29 05:32:17;;;;;;;15.93;4.87;;;;;;;;;;5056978;27;38435;-81
2021/03/29 05:34:45;;;;;;;19.53;5.67;;;;;;;;;;5057317;28;39256;-81
2021/03/29 05:37:12;;;;;;;17.50;5.03;;;;;;;;;;5056550;28;39407;-81
2021/03/29 05:39:38;;;;;;;17.73;4.40;;;;;;;;;;5052099;28;37138;-81
2021/03/29 05:42:06;;;;;;;16.50;4.93;;;;;;;;;;5066111;28;38688;-81
2021/03/29 05:44:33;;;;;;;18.13;4.57;;;;;;;;;;5061831;28;38707;-81
2021/03/29 05:46:59;;;;;;;18.27;5.20;;;;;;;;;;5062357;28;38468;-81
2021/03/29 05:49:26;;;;;;;15.37;4.37;;;;;;;;;;5058470;28;36019;-81
2021/03/29 05:51:52;;;;;;;18.03;4.27;;;;;;;;;;5061632;28;39117;-80
2021/03/29 05:54:19;;;;;;;17.23;4.70;;;;;;;;;;5056212;28;39618;-81
2021/03/29 05:56:47;;;;;;;15.00;4.87;;;;;;;;;;5062939;28;39168;-81
2021/03/29 05:59:18;;;;;;;15.13;5.10;;;;;;;;;;5061713;27;37161;-81
2021/03/29 06:01:49;;;;;;;16.40;4.60;;;;;;;;;;5064154;28;38644;-81
2021/03/29 06:04:16;;;;;;;13.10;4.23;;;;;;;;;;5072126;28;39625;-82
2021/03/29 06:06:44;;;;;;;16.13;5.50;;;;;;;;;;5062869;28;38788;-79
2021/03/29 06:09:10;;;;;;;11.10;5.13;;;;;;;;;;5060378;28;37252;-80
2021/03/29 06:11:38;;;;;;;15.07;4.60;;;;;;;;;;5064483;28;39309;-79
2021/03/29 06:14:07;;;;;;;13.60;5.43;;;;;;;;;;5058706;28;39521;-80
2021/03/29 06:16:51;;;;;;;21.47;5.43;;;;;;;;;;5068887;28;40312;-79
2021/03/29 06:19:36;;;;;;;19.37;5.10;;;;;;;;;;5055277;28;37134;-78
2021/03/29 06:22:09;;;;;;;13.97;4.33;;;;;;;;;;5054853;28;39997;-79
2021/03/29 06:24:52;;;;;;;18.17;5.20;;;;;;;;;;5072361;28;37943;-79
2021/03/29 06:27:19;;;;;;;14.38;5.18;;;;;;;;;;5054554;27;39305;-80
2021/03/29 06:29:45;;;;;;;16.03;5.20;;;;;;;;;;5059065;28;37349;-80
2021/03/29 06:32:16;;;;;;;18.97;5.23;;;;;;;;;;5061126;28;39984;-81
2021/03/29 06:34:42;;;;;;;19.50;4.90;;;;;;;;;;5062409;28;39212;-79
2021/03/29 06:37:09;;;;;;;15.60;5.03;;;;;;;;;;5062508;28;39810;-81
2021/03/29 06:39:36;;;;;;;17.70;5.17;;;;;;;;;;5076059;28;37424;-83
2021/03/29 06:42:03;;;;;;;14.63;4.87;;;;;;;;;;5060834;27;39987;-81
2021/03/29 06:44:34;;;;;;;16.00;5.63;;;;;;;;;;5076201;28;40283;-81
2021/03/29 06:47:08;;;;;;;17.13;5.47;;;;;;;;;;5065925;28;39241;-81
2021/03/29 06:50:00;;;;;;;16.40;5.20;;;;;;;;;;5081358;27;49721;-81
2021/03/29 06:52:28;;;;;;;18.23;4.55;;;;;;;;;;5079934;28;39860;-82
2021/03/29 06:55:13;;;;;;;14.70;4.50;;;;;;;;;;5086019;28;39601;-83
2021/03/29 06:57:40;;;;;;;16.00;5.40;;;;;;;;;;5094076;22;48526;-78
2021/03/29 07:00:07;;;;;;;17.07;5.07;;;;;;;;;;5054953;28;38146;-79
2021/03/29 07:02:41;;;;;;;15.00;4.80;;;;;;;;;;5063418;27;39902;-77
2021/03/29 07:05:08;;;;;;;13.77;5.30;;;;;;;;;;5061371;28;39724;-78
2021/03/29 07:07:36;;;;;;;22.97;5.80;;;;;;;;;;5055701;28;39033;-77
2021/03/29 07:10:03;;;;;;;16.73;4.77;;;;;;;;;;5049875;28;35903;-78
2021/03/29 07:12:33;;;;;;;20.97;5.20;;;;;;;;;;5062566;28;39166;-78
2021/03/29 07:15:02;;;;;;;18.13;5.43;;;;;;;;;;5073473;28;37834;-79
2021/03/29 07:17:31;;;;;;;13.33;4.87;;;;;;;;;;5059396;28;47537;-79
2021/03/29 07:19:58;;;;;;;16.23;4.50;;;;;;;;;;5053374;28;37480;-78
2021/03/29 07:22:24;;;;;;;16.23;4.57;;;;;;;;;;5063571;28;38809;-77
2021/03/29 07:24:52;;;;;;;15.47;4.57;;;;;;;;;;5063052;28;38812;-78
2021/03/29 07:27:19;;;;;;;15.03;4.70;;;;;;;;;;5078036;28;37402;-78
2021/03/29 07:29:47;;;;;;;16.03;4.07;;;;;;;;;;5063100;28;36775;-78
2021/03/29 07:32:26;;;;;;;16.20;5.40;;;;;;;;;;5056838;28;39079;-79
2021/03/29 07:34:53;;;;;;;13.20;4.87;;;;;;;;;;5060267;28;40004;-77
2021/03/29 07:37:41;;;;;;;14.80;4.57;;;;;;;;;;5064304;28;37846;-78
2021/03/29 07:40:19;;;;;;;17.20;4.67;;;;;;;;;;5055837;28;39520;-77
2021/03/29 07:42:49;;;;;;;13.50;4.60;;;;;;;;;;5056953;28;39764;-78
2021/03/29 07:45:17;;;;;;;18.53;4.87;;;;;;;;;;5057540;28;37968;-77
2021/03/29 07:47:57;;;;;;;19.40;4.63;;;;;;;;;;5053169;28;39078;-79
2021/03/29 07:50:26;;;;;;;15.43;4.47;;;;;;;;;;5054496;28;35881;-77
2021/03/29 07:52:57;;;;;;;16.10;5.57;;;;;;;;;;5057286;28;39022;-76
2021/03/29 07:55:26;;;;;;;15.73;5.63;;;;;;;;;;5056010;28;38836;-78
2021/03/29 07:57:55;;;;;;;15.53;4.70;;;;;;;;;;5072966;28;37731;-77
2021/03/29 08:00:21;;;;;;;17.63;5.23;;;;;;;;;;5061411;28;37951;-78
2021/03/29 08:02:48;;;;;;;17.73;5.27;;;;;;;;;;5060827;27;39198;-78
2021/03/29 08:05:15;;;;;;;16.47;4.57;;;;;;;;;;5053488;28;39349;-79
2021/03/29 08:07:54;;;;;;;22.03;5.40;;;;;;;;;;5056801;28;37718;-78
2021/03/29 08:10:22;;;;;;;16.10;5.23;;;;;;;;;;5050558;28;36964;-75
2021/03/29 08:13:01;;;;;;;15.10;4.73;;;;;;;;;;5059234;28;38502;-76
2021/03/29 08:15:58;;;;;;;17.08;5.10;;;;;;;;;;5063838;28;47184;-75
2021/03/29 08:18:25;;;;;;;14.93;4.65;;;;;;;;;;5080734;28;37182;-76
2021/03/29 08:20:54;;;;;;;14.88;4.80;;;;;;;;;;5064119;28;36409;-77
2021/03/29 08:23:33;;;;;;;18.50;5.07;;;;;;;;;;5068819;28;38475;-77
2021/03/29 08:26:06;;;;;;;18.10;5.20;;;;;;;;;;5075174;28;37079;-76
2021/03/29 08:28:52;;;;;;;21.25;4.68;;;;;;;;;;5079945;28;47273;-76
2021/03/29 08:31:37;;;;;;;13.95;4.45;;;;;;;;;;5068080;28;37107;-77
2021/03/29 08:34:03;;;;;;;14.32;4.43;;;;;;;;;;5063923;27;39788;-76
2021/03/29 08:36:30;;;;;;;18.35;4.35;;;;;;;;;;5062125;28;38998;-76
2021/03/29 08:38:56;;;;;;;22.40;4.65;;;;;;;;;;5069102;28;39040;-78
2021/03/29 08:41:22;;;;;;;11.23;4.50;;;;;;;;;;5065177;28;37079;-78
2021/03/29 08:43:49;;;;;;;18.30;4.85;;;;;;;;;;5075688;28;37596;-78
2021/03/29 08:46:15;;;;;;;15.80;4.25;;;;;;;;;;5063612;28;38714;-78
2021/03/29 08:48:45;;;;;;;15.43;4.25;;;;;;;;;;5066762;28;39259;-78
2021/03/29 08:51:21;;;;;;;12.43;4.38;;;;;;;;;;5058926;28;36803;-79
2021/03/29 08:54:03;;;;;;;12.13;4.55;;;;;;;;;;5062534;28;37800;-78
2021/03/29 08:56:36;;;;;;;20.77;5.50;;;;;;;;;;5091286;22;48042;-78
2021/03/29 08:59:03;;;;;;;14.40;4.35;;;;;;;;;;5072512;28;40042;-79
2021/03/29 09:01:29;;;;;;;13.70;4.40;;;;;;;;;;5079334;27;49031;-79
2021/03/29 09:04:02;;;;;;;16.67;4.97;;;;;;;;;;5085811;28;39625;-79
2021/03/29 09:06:31;;;;;;;16.42;4.57;;;;;;;;;;5088795;27;49025;-79
2021/03/29 09:08:58;;;;;;;19.75;5.00;;;;;;;;;;5081406;28;38910;-80
2021/03/29 09:11:25;;;;;;;16.20;5.13;;;;;;;;;;5085837;27;37926;-80
2021/03/29 09:13:55;;;;;;;11.88;4.40;;;;;;;;;;5085134;28;39835;-80
2021/03/29 09:16:24;;;;;;;15.98;5.32;;;;;;;;;;5078816;27;37722;-80
2021/03/29 09:18:51;;;;;;;16.48;4.25;;;;;;;;;;5078193;28;37826;-80
2021/03/29 09:21:24;;;;;;;13.40;5.20;;;;;;;;;;5098617;27;37031;-80
2021/03/29 09:23:51;;;;;;;13.52;4.32;;;;;;;;;;5079721;28;38969;-80
2021/03/29 09:26:26;;;;;;;20.83;5.40;;;;;;;;;;5078521;27;39357;-79
2021/03/29 09:28:54;;;;;;;13.52;4.40;;;;;;;;;;5075253;28;38833;-79
2021/03/29 09:31:22;;;;;;;16.85;4.60;;;;;;;;;;5081181;27;37543;-81
2021/03/29 09:33:49;;;;;;;11.27;4.22;;;;;;;;;;5083858;28;40477;-81
2021/03/29 09:36:18;;;;;;;13.18;4.57;;;;;;;;;;5081472;27;37856;-81
2021/03/29 09:38:50;;;;;;;10.48;4.65;;;;;;;;;;5076299;27;39866;-81
2021/03/29 09:41:23;;;;;;;13.25;4.32;;;;;;;;;;5077633;28;38671;-81
2021/03/29 09:43:54;;;;;;;18.85;5.28;;;;;;;;;;5082665;28;39919;-81
2021/03/29 09:46:30;;;;;;;16.27;4.78;;;;;;;;;;5072416;28;39112;-81
2021/03/29 09:49:16;;;;;;;12.02;4.40;;;;;;;;;;5099131;27;39721;-82
2021/03/29 09:51:44;;;;;;;17.23;5.13;;;;;;;;;;5094183;28;47193;-81
2021/03/29 09:54:27;;;;;;;16.67;5.35;;;;;;;;;;5084574;28;38720;-82
2021/03/29 09:56:54;;;;;;;13.30;4.30;;;;;;;;;;5078406;27;39064;-81
2021/03/29 09:59:30;;;;;;;14.98;4.15;;;;;;;;;;5079203;27;39605;-82
2021/03/29 10:01:58;;;;;;;15.23;4.03;;;;;;;;;;5078205;28;37651;-80
2021/03/29 10:04:24;;;;;;;18.23;4.35;;;;;;;;;;5081549;27;40007;-81
2021/03/29 10:06:54;;;;;;;17.58;4.28;;;;;;;;;;5081596;27;39074;-80
2021/03/29 10:09:31;;;;;;;13.43;3.47;;;;;;;;;;5086335;27;40604;-81
2021/03/29 10:11:57;;;;;;;15.65;3.83;;;;;;;;;;5082840;27;37072;-81
2021/03/29 10:14:40;;;;;;;9.82;3.35;;;;;;;;;;5084702;27;40133;-81
2021/03/29 10:17:16;;;;;;;15.13;4.20;;;;;;;;;;5081594;27;40332;-82
2021/03/29 10:19:43;;;;;;;12.82;3.83;;;;;;;;;;5087693;27;38804;-82
2021/03/29 10:22:11;;;;;;;14.27;4.00;;;;;;;;;;5081111;28;37502;-82
2021/03/29 10:24:58;;;;;;;18.02;3.95;;;;;;;;;;5108550;28;39890;-81
2021/03/29 10:27:25;;;;;;;12.25;3.90;;;;;;;;;;5076684;27;38897;-81
2021/03/29 10:29:52;;;;;;;16.08;4.35;;;;;;;;;;5085255;28;40549;-81
2021/03/29 10:32:19;;;;;;;12.63;3.85;;;;;;;;;;5080967;28;37344;-81
2021/03/29 10:34:46;;;;;;;13.27;4.93;;;;;;;;;;5082159;28;40746;-81
2021/03/29 10:37:18;;;;;;;16.77;4.43;;;;;;;;;;5100976;28;39776;-80
2021/03/29 10:39:45;;;;;;;18.95;4.35;;;;;;;;;;5101667;27;40599;-81
2021/03/29 10:42:15;;;;;;;14.48;3.40;;;;;;;;;;5086958;27;37029;-81
2021/03/29 10:44:41;;;;;;;10.40;4.15;;;;;;;;;;5087050;27;38577;-81
2021/03/29 10:47:08;;;;;;;13.90;3.85;;;;;;;;;;5086239;27;39657;-81
2021/03/29 10:49:34;;;;;;;14.85;4.03;;;;;;;;;;5088235;28;39177;-81
2021/03/29 10:52:01;;;;;;;11.73;3.65;;;;;;;;;;5087766;27;36450;-80
2021/03/29 10:54:27;;;;;;;10.50;3.58;;;;;;;;;;5088269;27;47020;-80
2021/03/29 10:56:53;;;;;;;12.57;4.18;;;;;;;;;;5076874;28;39331;-81
2021/03/29 10:59:20;;;;;;;15.45;4.20;;;;;;;;;;5085184;27;37503;-81
2021/03/29 11:01:46;;;;;;;13.85;3.35;;;;;;;;;;5090154;27;36955;-81
2021/03/29 11:04:12;;;;;;;13.07;3.53;;;;;;;;;;5085051;28;39964;-81
2021/03/29 11:06:39;;;;;;;16.13;4.40;;;;;;;;;;5088401;27;39095;-81
2021/03/29 11:09:06;;;;;;;9.75;4.38;;;;;;;;;;5081253;27;36330;-81
2021/03/29 11:11:32;;;;;;;10.60;4.30;;;;;;;;;;5100249;28;37575;-80
2021/03/29 11:13:59;;;;;;;12.60;4.53;;;;;;;;;;5084658;27;38955;-78
2021/03/29 11:16:26;;;;;;;15.82;4.70;;;;;;;;;;5082839;27;38714;-79
2021/03/29 11:18:52;;;;;;;14.90;3.92;;;;;;;;;;5101524;28;38928;-78
2021/03/29 11:21:19;;;;;;;16.98;4.60;;;;;;;;;;5084702;27;37924;-79
2021/03/29 11:23:46;;;;;;;16.63;4.53;;;;;;;;;;5086424;27;40560;-79
2021/03/29 11:26:12;;;;;;;14.95;4.53;;;;;;;;;;5084667;27;38638;-79
2021/03/29 11:28:39;;;;;;;15.65;4.38;;;;;;;;;;5096295;27;39078;-77
2021/03/29 11:31:10;;;;;;;16.98;4.95;;;;;;;;;;5084529;27;37300;-77
2021/03/29 11:33:37;;;;;;;10.80;4.38;;;;;;;;;;5085011;27;38929;-77
2021/03/29 11:36:03;;;;;;;13.60;4.30;;;;;;;;;;5098948;27;37987;-76
2021/03/29 11:38:30;;;;;;;12.52;3.88;;;;;;;;;;5080640;27;39229;-77
2021/03/29 11:40:56;;;;;;;13.23;4.57;;;;;;;;;;5085187;28;35858;-78
2021/03/29 11:43:23;;;;;;;12.95;4.53;;;;;;;;;;5081495;27;40623;-76
2021/03/29 11:45:49;;;;;;;15.00;4.82;;;;;;;;;;5099462;27;39877;-76
2021/03/29 11:48:16;;;;;;;14.00;4.28;;;;;;;;;;5083952;27;40438;-77
2021/03/29 11:50:42;;;;;;;10.90;4.25;;;;;;;;;;5104275;28;37053;-76
2021/03/29 11:53:08;;;;;;;12.60;5.10;;;;;;;;;;5086402;27;40129;-77
2021/03/29 11:55:35;;;;;;;11.60;3.90;;;;;;;;;;5083260;27;39068;-77
2021/03/29 11:58:01;;;;;;;14.95;4.68;;;;;;;;;;5083248;27;38791;-79
2021/03/29 12:03:26;;;;;;;11.35;3.90;;;;;;;;;;5085231;27;40195;-79
2021/03/29 12:05:49;;;;;;;15.50;4.82;;;;;;;;;;5080521;28;48466;-78
2021/03/29 12:13:34;;;;;;;7.68;4.25;;;;;;;;;;5080684;27;49121;-77
2021/03/29 12:16:01;;;;;;;13.93;5.57;;;;;;;;;;5097911;27;38867;-76
2021/03/29 12:18:46;;;;;;;9.65;4.50;;;;;;;;;;5080953;27;39502;-77
2021/03/29 12:21:15;;;;;;;13.07;4.68;;;;;;;;;;5075026;27;36944;-78
2021/03/29 12:23:44;;;;;;;10.77;4.30;;;;;;;;;;5098997;28;37940;-79
2021/03/29 12:26:11;;;;;;;13.05;5.35;;;;;;;;;;5083275;28;37947;-78
2021/03/29 12:28:44;;;;;;;14.77;4.30;;;;;;;;;;5091118;28;37287;-78
2021/03/29 12:31:11;;;;;;;11.98;4.10;;;;;;;;;;5081446;27;37545;-82
2021/03/29 12:33:37;;;;;;;13.13;4.97;;;;;;;;;;5088925;28;37703;-78
2021/03/29 12:36:04;;;;;;;10.50;4.35;;;;;;;;;;5079940;27;38183;-78
2021/03/29 12:38:33;;;;;;;11.40;4.45;;;;;;;;;;5077221;27;38498;-78
2021/03/29 12:41:03;;;;;;;10.13;4.30;;;;;;;;;;5079860;28;35931;-77
2021/03/29 12:43:45;;;;;;;10.25;4.53;;;;;;;;;;5083233;28;48519;-78
2021/03/29 12:46:17;;;;;;;11.13;4.30;;;;;;;;;;5074166;27;39184;-78
2021/03/29 12:48:44;;;;;;;12.00;4.97;;;;;;;;;;5084195;27;38315;-78
2021/03/29 12:51:12;;;;;;;10.75;4.88;;;;;;;;;;5072969;27;36678;-78
2021/03/29 12:53:38;;;;;;;9.98;4.45;;;;;;;;;;5081630;27;38424;-78
2021/03/29 12:56:05;;;;;;;11.52;4.30;;;;;;;;;;5081315;27;38035;-78
2021/03/29 12:58:38;;;;;;;11.10;3.88;;;;;;;;;;5082011;28;38744;-77
2021/03/29 13:01:08;;;;;;;11.18;4.40;;;;;;;;;;5081075;27;36854;-77
2021/03/29 13:03:40;;;;;;;13.15;4.85;;;;;;;;;;5082102;28;38197;-76
2021/03/29 13:08:40;;;;;;;14.70;5.05;;;;;;;;;;5080193;27;40050;-76
2021/03/29 13:11:28;;;;;;;11.80;4.90;;;;;;;;;;5098061;28;36334;-76
2021/03/29 13:13:55;;;;;;;11.38;4.55;;;;;;;;;;5089926;28;39177;-77
2021/03/29 13:16:23;;;;;;;8.77;4.60;;;;;;;;;;5083789;28;38811;-76
2021/03/29 13:18:50;;;;;;;10.32;4.20;;;;;;;;;;5095509;28;37487;-76
2021/03/29 13:21:16;;;;;;;14.27;4.72;;;;;;;;;;5077283;28;35456;-76
2021/03/29 13:23:42;;;;;;;8.63;3.85;;;;;;;;;;5100979;28;38050;-77
2021/03/29 13:26:14;;;;;;;12.00;3.60;;;;;;;;;;5085113;28;39151;-77
2021/03/29 13:28:41;;;;;;;11.00;3.72;;;;;;;;;;5084400;28;37547;-76
2021/03/29 13:31:07;;;;;;;12.68;4.07;;;;;;;;;;5080148;27;37551;-76
2021/03/29 13:33:33;;;;;;;12.75;4.00;;;;;;;;;;5083100;27;39015;-75
2021/03/29 13:36:00;;;;;;;10.57;4.38;;;;;;;;;;5085555;28;39026;-77
2021/03/29 13:38:26;;;;;;;12.55;4.45;;;;;;;;;;5081552;27;37347;-76
2021/03/29 13:40:52;;;;;;;8.48;3.75;;;;;;;;;;5083296;28;36630;-78
2021/03/29 13:43:20;;;;;;;9.00;3.78;;;;;;;;;;5094506;27;38088;-76
2021/03/29 13:45:46;;;;;;;11.25;4.13;;;;;;;;;;5080982;27;38915;-78
2021/03/29 13:48:12;;;;;;;7.40;3.78;;;;;;;;;;5086255;27;38951;-78
2021/03/29 13:50:40;;;;;;;12.93;4.22;;;;;;;;;;5085671;28;36924;-78
2021/03/29 13:53:11;;;;;;;11.05;4.00;;;;;;;;;;5083386;27;38644;-78
2021/03/29 13:55:37;;;;;;;7.07;3.67;;;;;;;;;;5080105;28;37571;-77
2021/03/29 13:58:04;;;;;;;12.27;4.30;;;;;;;;;;5082891;27;39397;-77
2021/03/29 14:00:30;;;;;;;9.90;4.25;;;;;;;;;;5084810;28;35851;-79
2021/03/29 14:03:00;;;;;;;9.38;4.05;;;;;;;;;;5086552;27;39430;-79
2021/03/29 14:05:27;;;;;;;9.38;4.07;;;;;;;;;;5084309;28;40016;-77
2021/03/29 14:07:54;;;;;;;9.07;4.15;;;;;;;;;;5086442;27;38560;-78
2021/03/29 14:10:20;;;;;;;8.45;3.72;;;;;;;;;;5088727;27;36749;-78
2021/03/29 14:12:47;;;;;;;9.13;3.95;;;;;;;;;;5090424;28;38086;-78
2021/03/29 14:15:14;;;;;;;10.35;4.32;;;;;;;;;;5103609;28;39254;-76
2021/03/29 14:17:41;;;;;;;9.23;3.92;;;;;;;;;;5102271;28;37936;-78
2021/03/29 14:20:08;;;;;;;10.75;4.05;;;;;;;;;;5103046;27;37510;-78
2021/03/29 14:22:34;;;;;;;10.80;4.20;;;;;;;;;;5084799;28;37883;-78
2021/03/29 14:25:01;;;;;;;11.95;4.15;;;;;;;;;;5082707;27;37939;-78
2021/03/29 14:27:27;;;;;;;12.27;4.28;;;;;;;;;;5085073;27;38989;-78
2021/03/29 14:29:53;;;;;;;11.40;4.00;;;;;;;;;;5081896;28;35839;-78
2021/03/29 14:32:20;;;;;;;9.27;4.22;;;;;;;;;;5088867;27;39313;-78
2021/03/29 14:34:58;;;;;;;13.23;4.15;;;;;;;;;;5086192;28;40125;-78
2021/03/29 14:40:11;;;;;;;9.82;3.95;;;;;;;;;;5083205;27;37961;-76
2021/03/29 14:42:45;;;;;;;10.27;4.10;;;;;;;;;;5080131;28;39130;-77
2021/03/29 14:45:11;;;;;;;15.57;4.47;;;;;;;;;;5076244;28;38964;-78
2021/03/29 14:47:38;;;;;;;10.80;4.78;;;;;;;;;;5086547;27;38693;-77
2021/03/29 14:50:09;;;;;;;11.30;4.78;;;;;;;;;;5080533;28;35552;-78
2021/03/29 14:52:39;;;;;;;13.18;4.60;;;;;;;;;;5083665;28;37683;-78
2021/03/29 14:55:07;;;;;;;10.25;4.50;;;;;;;;;;5082301;27;39674;-78